Terminal Aerodrome Forecast
Issued by NWS Oklahoma City, OK

Home | Current Version | Previous Version | Text Only | Print | Product List | Glossary On
Versions: 1 2 3 4 5 6 7 8 9 10 11 12 13 14 15 16 17 18 19 20
000
FTUS44 KOUN 220520
TAFOUN
TAF
KOUN 220520Z 2206/2306 16008KT P6SM SKC
     FM222200 15008KT P6SM BKN050 OVC150 PROB30 2300/2306 5SM -SHRA
      OVC040=

USA.gov is the U.S. government's official web portal to all federal, state and local government web resources and services.